createdAt,value
2019-05-18T00:00:47.953Z,10.43
2019-05-18T00:03:16.374Z,9.43
2019-05-18T00:05:44.763Z,8.05
2019-05-18T00:08:13.261Z,8.20
2019-05-18T00:10:41.732Z,9.78
2019-05-18T00:13:10.141Z,7.10
2019-05-18T00:15:38.528Z,8.78
2019-05-18T00:18:06.932Z,6.83
2019-05-18T00:20:35.355Z,7.33
2019-05-18T00:23:03.845Z,6.12
2019-05-18T00:25:32.318Z,7.37
2019-05-18T00:28:00.733Z,5.92
2019-05-18T00:30:29.216Z,7.72
2019-05-18T00:32:57.646Z,6.22
2019-05-18T00:35:26.069Z,8.98
2019-05-18T00:37:54.483Z,7.90
2019-05-18T00:40:22.882Z,7.70
2019-05-18T00:42:51.308Z,5.80
2019-05-18T00:45:19.783Z,8.25
2019-05-18T00:47:48.182Z,7.35
2019-05-18T00:50:17.223Z,7.22
2019-05-18T00:52:45.642Z,8.35
2019-05-18T00:55:14.119Z,6.97
2019-05-18T00:57:42.518Z,5.97
2019-05-18T01:00:11.675Z,5.03
2019-05-18T01:02:40.105Z,6.85
2019-05-18T01:05:08.983Z,6.37
2019-05-18T01:07:37.419Z,6.35
2019-05-18T01:10:07.970Z,6.47
2019-05-18T01:12:36.407Z,6.95
2019-05-18T01:15:06.959Z,7.60
2019-05-18T01:17:35.423Z,6.90
2019-05-18T01:20:05.204Z,7.90
2019-05-18T01:22:33.619Z,9.00
2019-05-18T01:25:02.022Z,7.47
2019-05-18T01:27:30.455Z,10.78
2019-05-18T01:29:58.858Z,9.78
2019-05-18T01:32:28.300Z,8.05
2019-05-18T01:34:56.751Z,7.40
2019-05-18T01:37:25.147Z,9.08
2019-05-18T01:39:54.564Z,9.50
2019-05-18T01:42:22.973Z,10.78
2019-05-18T01:44:51.408Z,12.93
2019-05-18T01:47:19.809Z,10.65
2019-05-18T01:49:48.292Z,9.95
2019-05-18T01:52:16.716Z,10.45
2019-05-18T01:54:45.125Z,10.72
2019-05-18T01:57:13.546Z,9.73
2019-05-18T01:59:41.983Z,7.78
2019-05-18T02:02:10.416Z,8.38
2019-05-18T02:04:38.815Z,6.85
2019-05-18T02:07:07.248Z,7.55
2019-05-18T02:09:35.685Z,8.58
2019-05-18T02:12:04.198Z,7.37
2019-05-18T02:14:32.590Z,7.72
2019-05-18T02:17:01.001Z,8.80
2019-05-18T02:19:29.438Z,7.58
2019-05-18T02:21:57.854Z,8.13
2019-05-18T02:24:26.281Z,8.60
2019-05-18T02:26:54.712Z,8.03
2019-05-18T02:29:23.118Z,9.60
2019-05-18T02:31:51.527Z,9.18
2019-05-18T02:34:19.941Z,9.33
2019-05-18T02:36:48.408Z,8.03
2019-05-18T02:39:16.810Z,6.78
2019-05-18T02:41:45.247Z,6.83
2019-05-18T02:44:13.678Z,10.55
2019-05-18T02:46:42.104Z,8.45
2019-05-18T02:49:10.541Z,8.55
2019-05-18T02:51:38.961Z,6.95
2019-05-18T02:54:07.521Z,6.33
2019-05-18T02:56:36.622Z,7.22
2019-05-18T02:59:05.029Z,7.15
2019-05-18T03:01:33.426Z,8.13
2019-05-18T03:04:01.864Z,7.53
2019-05-18T03:06:30.317Z,7.10
2019-05-18T03:08:58.809Z,7.53
2019-05-18T03:11:27.225Z,7.97
2019-05-18T03:13:55.622Z,8.23
2019-05-18T03:16:24.069Z,8.58
2019-05-18T03:19:07.789Z,7.30
2019-05-18T03:21:22.893Z,7.92
2019-05-18T03:23:51.337Z,8.20
2019-05-18T03:26:19.762Z,8.13
2019-05-18T03:28:48.184Z,5.85
2019-05-18T03:31:16.602Z,7.97
2019-05-18T03:33:45.014Z,7.22
2019-05-18T03:36:13.445Z,9.53
2019-05-18T03:38:41.871Z,9.90
2019-05-18T03:41:10.308Z,8.65
2019-05-18T03:43:38.720Z,7.90
2019-05-18T03:46:07.160Z,12.03
2019-05-18T03:48:35.554Z,9.83
2019-05-18T03:51:03.986Z,8.18
2019-05-18T03:53:32.404Z,8.25
2019-05-18T03:56:00.801Z,10.78
2019-05-18T03:58:29.228Z,12.05
2019-05-18T04:00:57.681Z,9.25
2019-05-18T04:03:26.077Z,8.28
2019-05-18T04:05:54.523Z,8.88
2019-05-18T04:08:22.946Z,12.82
2019-05-18T04:10:51.340Z,8.20
2019-05-18T04:13:19.777Z,8.25
2019-05-18T04:15:48.206Z,8.78
2019-05-18T04:18:16.622Z,9.95
2019-05-18T04:20:45.043Z,10.60
2019-05-18T04:23:13.479Z,10.23
2019-05-18T04:25:43.905Z,12.65
2019-05-18T04:28:12.064Z,12.90
2019-05-18T04:30:40.485Z,13.58
2019-05-18T04:33:08.918Z,13.45
2019-05-18T04:35:37.313Z,12.05
2019-05-18T04:38:05.722Z,12.37
2019-05-18T04:40:34.214Z,13.78
2019-05-18T04:43:02.669Z,12.82
2019-05-18T04:45:31.088Z,11.18
2019-05-18T04:47:59.532Z,11.85
2019-05-18T04:50:27.983Z,11.90
2019-05-18T04:52:56.394Z,10.85
2019-05-18T04:55:24.796Z,10.25
2019-05-18T04:57:53.217Z,10.38
2019-05-18T05:00:21.774Z,12.40
2019-05-18T05:02:50.174Z,13.13
2019-05-18T05:05:18.598Z,11.12
2019-05-18T05:07:47.133Z,9.08
2019-05-18T05:10:15.540Z,8.30
2019-05-18T05:12:43.950Z,10.40
2019-05-18T05:15:12.743Z,13.18
2019-05-18T05:17:41.128Z,9.05
2019-05-18T05:20:19.395Z,11.12
2019-05-18T05:22:39.918Z,8.10
2019-05-18T05:25:08.515Z,9.13
2019-05-18T05:27:36.952Z,8.53
2019-05-18T05:30:07.415Z,6.90
2019-05-18T05:32:35.848Z,7.28
2019-05-18T05:35:05.726Z,10.20
2019-05-18T05:37:34.207Z,11.12
2019-05-18T05:40:02.642Z,8.58
2019-05-18T05:42:31.071Z,7.87
2019-05-18T05:44:59.550Z,7.78
2019-05-18T05:47:27.971Z,9.23
2019-05-18T05:49:59.707Z,8.70
2019-05-18T05:52:28.082Z,9.18
2019-05-18T05:54:56.483Z,9.25
2019-05-18T05:57:25.142Z,8.40
2019-05-18T05:59:53.710Z,9.65
2019-05-18T06:02:22.179Z,9.13
2019-05-18T06:04:50.593Z,7.70
2019-05-18T06:07:18.986Z,8.40
2019-05-18T06:09:47.391Z,8.83
2019-05-18T06:12:15.786Z,7.87
2019-05-18T06:14:44.230Z,8.50
2019-05-18T06:17:12.673Z,9.23
2019-05-18T06:19:41.096Z,7.50
2019-05-18T06:22:11.450Z,12.25
2019-05-18T06:24:39.853Z,7.45
2019-05-18T06:27:08.265Z,6.80
2019-05-18T06:29:36.773Z,7.55
2019-05-18T06:32:05.345Z,7.78
2019-05-18T06:34:33.753Z,7.45
2019-05-18T06:37:02.326Z,7.03
2019-05-18T06:39:33.469Z,7.45
2019-05-18T06:42:01.929Z,10.65
2019-05-18T06:44:30.619Z,9.45
2019-05-18T06:46:59.034Z,8.60
2019-05-18T06:49:27.507Z,6.78
2019-05-18T06:51:56.202Z,8.38
2019-05-18T06:54:33.892Z,8.43
2019-05-18T06:57:25.522Z,10.43
2019-05-18T06:59:54.512Z,7.75
2019-05-18T07:02:22.939Z,9.80
2019-05-18T07:04:51.412Z,8.03
2019-05-18T07:07:20.023Z,10.53
2019-05-18T07:09:48.651Z,7.65
2019-05-18T07:12:17.050Z,7.65
2019-05-18T07:14:45.456Z,9.23
2019-05-18T07:17:13.852Z,6.83
2019-05-18T07:19:42.273Z,7.17
2019-05-18T07:22:10.703Z,7.28
2019-05-18T07:24:39.112Z,7.15
2019-05-18T07:27:07.527Z,7.37
2019-05-18T07:29:35.945Z,8.10
2019-05-18T07:32:14.129Z,8.80
2019-05-18T07:34:43.053Z,8.03
2019-05-18T07:37:11.481Z,9.23
2019-05-18T07:39:39.878Z,8.33
2019-05-18T07:42:09.371Z,8.10
2019-05-18T07:44:40.540Z,8.68
2019-05-18T07:47:09.039Z,9.53
2019-05-18T07:49:37.464Z,8.28
2019-05-18T07:52:05.886Z,8.48
2019-05-18T07:54:34.342Z,9.53
2019-05-18T07:57:02.766Z,9.65
2019-05-18T07:59:31.238Z,9.60
2019-05-18T08:01:59.642Z,8.65
2019-05-18T08:04:28.279Z,9.38
2019-05-18T08:06:56.705Z,7.97
2019-05-18T08:09:25.112Z,8.33
2019-05-18T08:11:53.550Z,10.08
2019-05-18T08:14:22.004Z,8.83
2019-05-18T08:16:56.494Z,9.33
2019-05-18T08:19:25.953Z,8.35
2019-05-18T08:21:54.411Z,8.93
2019-05-18T08:24:23.011Z,9.25
2019-05-18T08:26:51.526Z,7.60
2019-05-18T08:29:20.087Z,10.32
2019-05-18T08:31:48.768Z,8.15
2019-05-18T08:34:17.189Z,7.65
2019-05-18T08:36:45.625Z,7.33
2019-05-18T08:39:14.352Z,7.53
2019-05-18T08:41:42.798Z,7.50
2019-05-18T08:44:11.221Z,10.78
2019-05-18T08:46:39.991Z,8.28
2019-05-18T08:49:08.412Z,8.08
2019-05-18T08:51:37.148Z,9.70
2019-05-18T08:54:05.564Z,8.63
2019-05-18T08:56:34.002Z,8.33
2019-05-18T08:59:02.768Z,8.60
2019-05-18T09:01:31.172Z,9.30
2019-05-18T09:03:59.566Z,9.33
2019-05-18T09:06:28.369Z,12.53
2019-05-18T09:08:56.790Z,9.13
2019-05-18T09:11:25.515Z,9.05
2019-05-18T09:13:53.903Z,8.98
2019-05-18T09:16:22.342Z,9.53
2019-05-18T09:18:50.731Z,9.15
2019-05-18T09:21:19.434Z,10.38
2019-05-18T09:23:47.869Z,9.85
2019-05-18T09:26:16.304Z,8.40
2019-05-18T09:28:44.734Z,11.48
2019-05-18T09:31:13.472Z,11.22
2019-05-18T09:33:41.901Z,10.63
2019-05-18T09:36:10.313Z,13.55
2019-05-18T09:38:38.805Z,9.00
2019-05-18T09:41:07.217Z,10.25
2019-05-18T09:43:35.641Z,9.38
2019-05-18T09:46:04.662Z,9.88
2019-05-18T09:48:33.461Z,11.65
2019-05-18T09:51:02.249Z,9.00
2019-05-18T09:53:30.667Z,9.10
2019-05-18T09:55:59.415Z,9.28
2019-05-18T09:58:28.095Z,9.43
2019-05-18T10:00:56.903Z,10.70
2019-05-18T10:03:25.560Z,9.65
2019-05-18T10:05:54.254Z,10.45
2019-05-18T10:08:22.646Z,9.10
2019-05-18T10:10:51.080Z,9.58
2019-05-18T10:13:19.473Z,9.53
2019-05-18T10:15:48.204Z,10.28
2019-05-18T10:18:16.637Z,10.03
2019-05-18T10:20:45.360Z,8.55
2019-05-18T10:23:14.121Z,9.10
2019-05-18T10:25:42.940Z,9.48
2019-05-18T10:28:11.364Z,7.85
2019-05-18T10:30:39.802Z,10.10
2019-05-18T10:33:08.227Z,8.28
2019-05-18T10:35:36.653Z,8.78
2019-05-18T10:38:05.332Z,7.67
2019-05-18T10:40:33.751Z,8.10
2019-05-18T10:43:02.158Z,8.45
2019-05-18T10:45:30.906Z,7.92
2019-05-18T10:47:59.357Z,6.30
2019-05-18T10:50:27.763Z,6.17
2019-05-18T10:52:56.191Z,7.30
2019-05-18T10:55:24.591Z,4.58
2019-05-18T10:57:53.019Z,4.55
2019-05-18T11:00:21.848Z,4.12
2019-05-18T11:02:50.374Z,4.87
2019-05-18T11:05:18.970Z,5.83
2019-05-18T11:07:47.378Z,4.17
2019-05-18T11:10:17.840Z,4.15
2019-05-18T11:12:46.535Z,3.60
2019-05-18T11:15:15.595Z,4.28
2019-05-18T11:17:44.334Z,4.90
2019-05-18T11:20:14.642Z,4.72
2019-05-18T11:22:43.047Z,3.50
2019-05-18T11:25:11.914Z,3.10
2019-05-18T11:27:40.344Z,3.17
2019-05-18T11:30:10.546Z,3.62
2019-05-18T11:32:39.458Z,3.33
2019-05-18T11:35:09.143Z,3.08
2019-05-18T11:37:37.544Z,4.47
2019-05-18T11:40:08.178Z,4.87
2019-05-18T11:42:36.629Z,5.08
2019-05-18T11:45:09.981Z,3.87
2019-05-18T11:47:38.426Z,3.20
2019-05-18T11:50:10.587Z,3.05
2019-05-18T11:52:39.272Z,3.55
2019-05-18T11:55:08.533Z,2.95
2019-05-18T11:57:38.765Z,3.77
2019-05-18T12:00:09.952Z,3.02
2019-05-18T12:02:38.700Z,4.37
2019-05-18T12:05:07.663Z,3.12
2019-05-18T12:07:36.063Z,2.90
2019-05-18T12:10:07.308Z,3.30
2019-05-18T12:12:35.773Z,2.62
2019-05-18T12:15:06.660Z,4.17
2019-05-18T12:17:35.447Z,3.55
2019-05-18T12:20:05.347Z,2.52
2019-05-18T12:22:34.052Z,2.20
2019-05-18T12:25:02.722Z,2.85
2019-05-18T12:27:31.551Z,3.33
2019-05-18T12:30:00.055Z,3.67
2019-05-18T12:32:28.478Z,2.83
2019-05-18T12:34:57.161Z,5.17
2019-05-18T12:37:25.574Z,3.35
2019-05-18T12:39:54.332Z,3.47
2019-05-18T12:42:23.003Z,4.58
2019-05-18T12:44:51.421Z,3.52
2019-05-18T12:47:20.080Z,4.75
2019-05-18T12:49:48.573Z,2.70
2019-05-18T12:52:17.017Z,2.87
2019-05-18T12:54:46.889Z,4.58
2019-05-18T12:57:15.713Z,2.10
2019-05-18T12:59:44.104Z,2.62
2019-05-18T13:02:12.607Z,2.50
2019-05-18T13:04:41.960Z,2.20
2019-05-18T13:07:10.502Z,2.37
2019-05-18T13:09:38.902Z,2.15
2019-05-18T13:12:07.666Z,1.52
2019-05-18T13:14:36.098Z,2.30
2019-05-18T13:17:04.500Z,1.50
2019-05-18T13:19:32.926Z,2.20
2019-05-18T13:22:01.750Z,2.30
2019-05-18T13:24:44.326Z,1.70
2019-05-18T13:27:00.633Z,2.10
2019-05-18T13:29:29.071Z,3.90
2019-05-18T13:31:57.503Z,2.40
2019-05-18T13:34:26.181Z,1.95
2019-05-18T13:36:54.840Z,2.22
2019-05-18T13:39:24.881Z,3.05
2019-05-18T13:41:53.290Z,2.65
2019-05-18T13:44:22.030Z,2.47
2019-05-18T13:46:50.713Z,1.98
2019-05-18T13:49:19.113Z,2.47
2019-05-18T13:51:47.543Z,1.90
2019-05-18T13:54:15.969Z,4.00
2019-05-18T13:56:44.398Z,2.05
2019-05-18T13:59:12.792Z,1.50
2019-05-18T14:01:41.229Z,1.70
2019-05-18T14:04:09.692Z,3.30
2019-05-18T14:06:38.360Z,1.40
2019-05-18T14:09:06.996Z,1.62
2019-05-18T14:11:35.750Z,1.65
2019-05-18T14:14:05.146Z,1.82
2019-05-18T14:16:33.584Z,2.50
2019-05-18T14:19:02.509Z,2.98
2019-05-18T14:21:30.913Z,2.30
2019-05-18T14:23:59.696Z,2.12
2019-05-18T14:26:28.364Z,4.90
2019-05-18T14:28:56.821Z,2.77
2019-05-18T14:31:25.260Z,3.15
2019-05-18T14:33:53.699Z,1.30
2019-05-18T14:36:22.100Z,9.43
2019-05-18T14:38:50.530Z,2.83
2019-05-18T14:41:18.924Z,2.30
2019-05-18T14:43:47.391Z,2.35
2019-05-18T14:46:15.788Z,0.90
2019-05-18T14:48:44.511Z,1.25
2019-05-18T14:51:13.203Z,1.95
2019-05-18T14:53:41.607Z,1.15
2019-05-18T14:56:10.027Z,2.30
2019-05-18T14:58:38.485Z,2.20
2019-05-18T15:01:07.074Z,2.17
2019-05-18T15:03:35.815Z,2.20
2019-05-18T15:06:04.278Z,2.65
2019-05-18T15:08:32.711Z,1.80
2019-05-18T15:11:01.105Z,1.45
2019-05-18T15:13:29.522Z,1.75
2019-05-18T15:15:57.906Z,1.20
2019-05-18T15:18:26.331Z,2.10
2019-05-18T15:20:54.728Z,2.12
2019-05-18T15:23:23.127Z,1.52
2019-05-18T15:25:51.849Z,1.65
2019-05-18T15:56:05.939Z,1.05
2019-05-18T15:58:30.408Z,1.77
2019-05-18T16:00:58.902Z,2.72
2019-05-18T16:03:27.336Z,1.20
2019-05-18T16:05:55.725Z,1.12
2019-05-18T16:08:24.164Z,1.42
2019-05-18T16:10:52.630Z,1.40
2019-05-18T16:13:21.059Z,3.27
2019-05-18T16:15:49.849Z,3.65
2019-05-18T16:18:18.250Z,2.95
2019-05-18T16:20:46.668Z,4.40
2019-05-18T16:23:15.069Z,5.55
2019-05-18T16:25:44.003Z,2.65
2019-05-18T16:28:12.416Z,2.85
2019-05-18T16:30:40.895Z,2.37
2019-05-18T16:33:09.629Z,2.42
2019-05-18T16:35:38.298Z,3.47
2019-05-18T16:38:06.753Z,3.15
2019-05-18T16:40:35.187Z,3.55
2019-05-18T16:43:03.636Z,3.45
2019-05-18T16:45:32.096Z,3.62
2019-05-18T16:48:00.529Z,7.00
2019-05-18T16:50:28.953Z,3.90
2019-05-18T16:52:57.428Z,3.62
2019-05-18T16:55:25.855Z,3.27
2019-05-18T16:57:54.292Z,5.45
2019-05-18T17:00:23.248Z,4.53
2019-05-18T17:02:52.018Z,2.50
2019-05-18T17:05:20.520Z,2.98
2019-05-18T17:07:49.296Z,3.90
2019-05-18T17:10:18.413Z,5.37
2019-05-18T17:12:46.818Z,3.27
2019-05-18T17:15:15.688Z,3.33
2019-05-18T17:17:44.331Z,2.20
2019-05-18T17:20:13.957Z,2.90
2019-05-18T17:22:42.494Z,2.10
2019-05-18T17:25:11.272Z,2.05
2019-05-18T17:27:39.843Z,3.30
2019-05-18T17:30:09.017Z,3.08
2019-05-18T17:32:37.922Z,1.90
2019-05-18T17:35:08.392Z,2.50
2019-05-18T17:37:36.849Z,1.60
2019-05-18T17:40:07.295Z,2.98
2019-05-18T17:42:35.789Z,3.52
2019-05-18T17:45:06.568Z,2.92
2019-05-18T17:47:34.970Z,3.05
2019-05-18T17:50:05.539Z,2.10
2019-05-18T17:52:34.237Z,5.42
2019-05-18T17:55:02.946Z,3.83
2019-05-18T17:57:31.472Z,1.70
2019-05-18T17:59:59.944Z,4.55
2019-05-18T18:02:28.364Z,2.15
2019-05-18T18:04:57.072Z,2.55
2019-05-18T18:07:25.563Z,3.10
2019-05-18T18:09:54.473Z,1.70
2019-05-18T18:12:23.267Z,1.75
2019-05-18T18:14:51.704Z,2.22
2019-05-18T18:17:20.398Z,4.15
2019-05-18T18:19:48.808Z,2.98
2019-05-18T18:22:17.454Z,3.35
2019-05-18T18:24:46.142Z,4.28
2019-05-18T18:27:24.539Z,3.10
2019-05-18T18:29:44.689Z,3.37
2019-05-18T18:32:13.095Z,3.15
2019-05-18T18:34:41.501Z,2.47
2019-05-18T18:37:09.903Z,2.55
2019-05-18T18:39:38.328Z,5.05
2019-05-18T18:42:06.727Z,5.30
2019-05-18T18:44:35.166Z,3.08
2019-05-18T18:47:04.030Z,3.58
2019-05-18T18:49:32.482Z,3.92
2019-05-18T18:52:01.199Z,4.47
2019-05-18T18:54:30.226Z,3.08
2019-05-18T18:56:58.650Z,4.35
2019-05-18T18:59:28.578Z,3.30
2019-05-18T19:01:56.981Z,3.37
2019-05-18T19:04:25.441Z,4.15
2019-05-18T19:06:54.259Z,6.20
2019-05-18T19:09:22.682Z,4.17
2019-05-18T19:11:51.489Z,4.37
2019-05-18T19:14:19.951Z,3.98
2019-05-18T19:16:48.507Z,3.90
2019-05-18T19:19:16.992Z,5.87
2019-05-18T19:21:45.725Z,4.97
2019-05-18T19:24:14.253Z,5.45
2019-05-18T19:26:42.840Z,5.65
2019-05-18T19:29:11.231Z,5.53
2019-05-18T19:31:39.664Z,6.87
2019-05-18T19:34:08.125Z,7.10
2019-05-18T19:36:36.684Z,5.83
2019-05-18T19:39:06.845Z,7.00
2019-05-18T19:41:35.648Z,8.75
2019-05-18T19:44:04.100Z,9.68
2019-05-18T19:46:32.529Z,7.85
2019-05-18T19:49:00.920Z,8.05
2019-05-18T19:51:32.807Z,8.58
2019-05-18T19:54:01.366Z,7.92
2019-05-18T19:56:37.530Z,8.08
2019-05-18T19:59:00.521Z,7.40
2019-05-18T20:01:28.932Z,8.15
2019-05-18T20:03:57.318Z,8.50
2019-05-18T20:06:26.053Z,8.78
2019-05-18T20:08:54.453Z,7.17
2019-05-18T20:11:22.848Z,9.03
2019-05-18T20:13:51.341Z,7.75
2019-05-18T20:16:20.116Z,8.13
2019-05-18T20:18:48.771Z,7.78
2019-05-18T20:21:17.637Z,7.47
2019-05-18T20:23:47.417Z,6.83
2019-05-18T20:26:15.812Z,6.45
2019-05-18T20:28:44.207Z,7.50
2019-05-18T20:31:12.685Z,7.17
2019-05-18T20:33:41.078Z,6.53
2019-05-18T20:36:09.680Z,7.33
2019-05-18T20:38:38.361Z,7.67
2019-05-18T20:41:06.772Z,6.80
2019-05-18T20:43:35.765Z,7.53
2019-05-18T20:46:04.716Z,6.20
2019-05-18T20:48:33.435Z,6.65
2019-05-18T20:51:01.856Z,8.48
2019-05-18T20:53:30.262Z,8.30
2019-05-18T20:55:58.808Z,8.70
2019-05-18T20:58:39.537Z,6.35
2019-05-18T21:00:57.567Z,6.10
2019-05-18T21:03:26.040Z,8.28
2019-05-18T21:05:54.856Z,8.60
2019-05-18T21:08:23.645Z,6.85
2019-05-18T21:10:52.425Z,6.70
2019-05-18T21:13:21.025Z,7.45
2019-05-18T21:15:49.449Z,7.15
2019-05-18T21:18:17.869Z,7.17
2019-05-18T21:20:46.587Z,7.03
2019-05-18T21:23:15.015Z,7.58
2019-05-18T21:25:43.738Z,7.92
2019-05-18T21:28:12.523Z,7.00
2019-05-18T21:30:40.925Z,6.97
2019-05-18T21:33:09.486Z,6.53
2019-05-18T21:35:37.926Z,6.60
2019-05-18T21:38:06.595Z,5.70
2019-05-18T21:40:35.067Z,6.75
2019-05-18T21:43:03.806Z,9.00
2019-05-18T21:45:32.595Z,8.93
2019-05-18T21:48:01.282Z,6.87
2019-05-18T21:50:29.969Z,6.70
2019-05-18T21:52:58.678Z,8.33
2019-05-18T21:55:27.060Z,8.98
2019-05-18T21:57:56.056Z,8.08
2019-05-18T22:00:25.098Z,7.10
2019-05-18T22:02:53.705Z,9.30
2019-05-18T22:05:22.434Z,7.72
2019-05-18T22:07:50.963Z,7.30
2019-05-18T22:10:25.783Z,7.97
2019-05-18T22:12:49.687Z,8.28
2019-05-18T22:15:18.854Z,10.80
2019-05-18T22:18:03.090Z,7.37
2019-05-18T22:20:35.603Z,7.28
2019-05-18T22:23:05.318Z,6.70
2019-05-18T22:25:34.466Z,6.58
2019-05-18T22:28:03.233Z,6.17
2019-05-18T22:30:31.648Z,6.67
2019-05-18T22:33:00.087Z,6.72
2019-05-18T22:35:28.861Z,7.37
2019-05-18T22:37:59.180Z,6.92
2019-05-18T22:40:27.617Z,7.78
2019-05-18T22:42:56.349Z,6.80
2019-05-18T22:45:25.051Z,6.87
2019-05-18T22:47:53.487Z,7.17
2019-05-18T22:50:22.051Z,7.92
2019-05-18T22:52:50.807Z,7.20
2019-05-18T22:55:19.495Z,6.47
2019-05-18T22:57:48.175Z,6.55
2019-05-18T23:00:16.936Z,7.40
2019-05-18T23:02:45.374Z,7.28
2019-05-18T23:05:14.236Z,8.55
2019-05-18T23:07:43.027Z,7.55
2019-05-18T23:10:11.883Z,7.45
2019-05-18T23:12:40.358Z,10.85
2019-05-18T23:15:09.180Z,8.58
2019-05-18T23:17:37.577Z,8.43
2019-05-18T23:20:07.531Z,8.53
2019-05-18T23:22:36.275Z,7.85
2019-05-18T23:25:07.007Z,8.65
2019-05-18T23:27:35.710Z,7.37
2019-05-18T23:30:06.465Z,8.55
2019-05-18T23:32:35.028Z,8.70
2019-05-18T23:35:04.795Z,7.20
2019-05-18T23:37:33.195Z,7.42
2019-05-18T23:40:01.685Z,8.40
2019-05-18T23:42:30.100Z,7.83
2019-05-18T23:44:58.515Z,9.18
2019-05-18T23:47:26.949Z,9.33
2019-05-18T23:49:55.364Z,9.15
2019-05-18T23:52:23.769Z,11.53
2019-05-18T23:54:52.461Z,10.53
2019-05-18T23:57:20.896Z,12.75
2019-05-18T23:59:49.286Z,10.80
